Time;durP1;ratioP1;P1;durP2;ratioP2;P2;SDS_P1;SDS_P2;PMS_P1;PMS_P2;Temp;Humidity;BMP_temperature;BMP_pressure;BME280_temperature;BME280_humidity;BME280_pressure;Samples;Min_cycle;Max_cycle;Signal;HPM_P1;HPM_P2
2024/03/28 00:01:59;;;;;;;8.43;5.80;;;7.30;99.90;;;;;;5068243;28;20056;-65
2024/03/28 00:04:25;;;;;;;7.47;5.55;;;7.30;99.90;;;;;;5065774;28;20040;-65
2024/03/28 00:06:51;;;;;;;6.97;4.72;;;7.20;99.90;;;;;;5065639;28;20060;-65
2024/03/28 00:09:17;;;;;;;5.47;4.63;;;7.20;99.90;;;;;;5072624;28;20475;-65
2024/03/28 00:11:42;;;;;;;6.88;5.15;;;7.20;99.90;;;;;;5067801;28;20048;-65
2024/03/28 00:14:08;;;;;;;4.80;4.40;;;7.10;99.90;;;;;;5069648;28;20044;-65
2024/03/28 00:16:35;;;;;;;5.30;4.65;;;7.00;99.90;;;;;;5066772;28;20141;-65
2024/03/28 00:19:01;;;;;;;5.53;4.55;;;7.00;99.90;;;;;;5075668;28;20059;-65
2024/03/28 00:21:26;;;;;;;7.68;5.50;;;6.90;99.90;;;;;;5070324;28;20044;-65
2024/03/28 00:23:52;;;;;;;9.20;6.47;;;6.90;99.90;;;;;;5077287;28;20490;-65
2024/03/28 00:26:18;;;;;;;8.52;5.80;;;6.90;99.90;;;;;;5071375;28;20044;-65
2024/03/28 00:28:45;;;;;;;6.85;5.47;;;7.00;99.90;;;;;;5073037;28;20045;-65
2024/03/28 00:31:11;;;;;;;10.52;6.15;;;6.90;99.90;;;;;;5077078;28;20077;-65
2024/03/28 00:33:36;;;;;;;7.90;5.90;;;6.90;99.90;;;;;;5071824;28;20443;-65
2024/03/28 00:36:02;;;;;;;11.25;5.70;;;6.90;99.90;;;;;;5070500;28;20047;-64
2024/03/28 00:38:28;;;;;;;7.13;6.07;;;7.00;99.90;;;;;;5070382;28;20042;-65
2024/03/28 00:40:54;;;;;;;9.27;6.53;;;7.00;99.90;;;;;;5070914;28;20098;-65
2024/03/28 00:43:21;;;;;;;9.57;6.47;;;7.00;99.90;;;;;;5068972;28;20474;-65
2024/03/28 00:45:47;;;;;;;9.30;6.53;;;7.00;99.90;;;;;;5078705;28;20059;-65
2024/03/28 00:48:16;;;;;;;11.88;6.30;;;7.10;99.90;;;;;;5082254;28;20060;-65
2024/03/28 00:50:42;;;;;;;8.80;6.65;;;7.00;99.90;;;;;;5081676;28;20189;-64
2024/03/28 00:53:08;;;;;;;11.13;6.25;;;7.10;99.90;;;;;;5083641;28;20555;-65
2024/03/28 00:55:34;;;;;;;7.68;6.00;;;7.10;99.90;;;;;;5077497;28;20127;-65
2024/03/28 00:58:00;;;;;;;8.23;5.47;;;7.00;99.90;;;;;;5076772;28;20056;-65
2024/03/28 01:00:25;;;;;;;10.75;6.25;;;7.00;99.90;;;;;;5073442;28;20044;-65
2024/03/28 01:02:51;;;;;;;11.80;5.90;;;7.00;99.90;;;;;;5081865;28;20481;-65
2024/03/28 01:05:17;;;;;;;9.63;5.88;;;7.00;99.90;;;;;;5080435;28;20044;-65
2024/03/28 01:07:47;;;;;;;8.50;6.38;;;7.00;99.90;;;;;;5070999;28;20067;-65
2024/03/28 01:10:12;;;;;;;9.70;6.80;;;7.00;99.90;;;;;;5077649;28;20043;-65
2024/03/28 01:12:38;;;;;;;10.02;7.05;;;7.10;99.90;;;;;;5077217;28;20642;-65
2024/03/28 01:15:04;;;;;;;11.98;8.15;;;7.20;99.90;;;;;;5078704;28;20127;-65
2024/03/28 01:17:30;;;;;;;10.70;7.43;;;7.30;99.90;;;;;;5077457;28;20401;-65
2024/03/28 01:19:56;;;;;;;13.88;7.97;;;7.30;99.90;;;;;;5082299;28;20055;-65
2024/03/28 01:22:21;;;;;;;11.65;7.90;;;7.30;99.90;;;;;;5084698;28;20051;-65
2024/03/28 01:24:47;;;;;;;11.77;7.78;;;7.50;99.90;;;;;;5077199;28;20089;-65
2024/03/28 01:27:13;;;;;;;13.85;8.32;;;7.50;99.90;;;;;;5084379;28;20091;-65
2024/03/28 01:29:39;;;;;;;12.85;8.40;;;7.50;99.90;;;;;;5078873;28;20494;-65
2024/03/28 01:32:05;;;;;;;13.18;7.72;;;7.60;99.90;;;;;;5076893;28;20082;-65
2024/03/28 01:34:31;;;;;;;14.15;8.88;;;7.60;99.90;;;;;;5068703;28;20040;-65
2024/03/28 01:36:56;;;;;;;12.75;8.20;;;7.50;99.90;;;;;;5075554;28;20399;-65
2024/03/28 01:39:22;;;;;;;12.32;7.85;;;7.60;99.90;;;;;;5071817;28;20075;-65
2024/03/28 01:41:50;;;;;;;12.77;8.23;;;7.60;99.90;;;;;;5076079;28;20079;-65
2024/03/28 01:44:19;;;;;;;15.10;9.00;;;7.60;99.90;;;;;;5079198;28;20044;-65
2024/03/28 01:46:45;;;;;;;13.63;8.30;;;7.60;99.90;;;;;;5078953;28;20599;-65
2024/03/28 01:49:13;;;;;;;12.60;8.07;;;7.60;99.90;;;;;;5068316;28;20086;-65
2024/03/28 01:51:39;;;;;;;12.52;8.40;;;7.60;99.90;;;;;;5080076;28;20097;-65
2024/03/28 01:54:06;;;;;;;15.10;9.07;;;7.60;99.90;;;;;;5071946;28;20461;-64
2024/03/28 01:56:34;;;;;;;16.75;9.65;;;7.70;99.90;;;;;;5078662;28;20444;-65
2024/03/28 01:59:02;;;;;;;14.57;8.88;;;7.70;99.90;;;;;;5073660;28;20127;-65
2024/03/28 02:01:28;;;;;;;17.30;9.82;;;7.80;99.90;;;;;;5083685;28;20055;-65
2024/03/28 02:03:55;;;;;;;16.55;9.90;;;7.70;99.90;;;;;;5080262;28;20040;-65
2024/03/28 02:06:21;;;;;;;16.30;9.65;;;7.70;99.90;;;;;;5083560;28;20102;-65
2024/03/28 02:08:47;;;;;;;18.10;10.40;;;7.80;99.90;;;;;;5082406;28;20493;-64
2024/03/28 02:11:13;;;;;;;14.50;9.55;;;7.80;99.90;;;;;;5072182;28;20056;-65
2024/03/28 02:13:39;;;;;;;20.05;9.60;;;7.80;99.90;;;;;;5073875;28;20124;-65
2024/03/28 02:16:04;;;;;;;17.52;10.20;;;7.80;99.90;;;;;;5081580;28;20036;-65
2024/03/28 02:18:30;;;;;;;14.38;9.63;;;7.70;99.90;;;;;;5078579;28;20514;-65
2024/03/28 02:20:57;;;;;;;13.40;9.00;;;7.70;99.90;;;;;;5078855;28;20060;-65
2024/03/28 02:23:23;;;;;;;20.33;10.23;;;7.80;99.90;;;;;;5083290;28;20047;-65
2024/03/28 02:25:48;;;;;;;16.92;10.10;;;7.70;99.90;;;;;;5079370;28;20051;-65
2024/03/28 02:28:14;;;;;;;21.48;9.90;;;7.70;99.90;;;;;;5083190;28;20393;-65
2024/03/28 02:30:41;;;;;;;15.38;10.60;;;7.70;99.90;;;;;;5079084;28;20054;-65
2024/03/28 02:33:07;;;;;;;19.05;10.07;;;7.80;99.90;;;;;;5082180;28;20040;-65
2024/03/28 02:35:33;;;;;;;15.68;9.95;;;7.70;99.90;;;;;;5076382;28;20427;-65
2024/03/28 02:37:59;;;;;;;18.92;11.35;;;7.80;99.90;;;;;;5068489;28;20048;-65
2024/03/28 02:40:25;;;;;;;14.50;10.48;;;7.70;99.90;;;;;;5080246;28;20040;-64
2024/03/28 02:42:51;;;;;;;17.83;10.10;;;7.70;99.90;;;;;;5077131;28;20051;-65
2024/03/28 02:45:17;;;;;;;16.27;9.95;;;7.70;99.90;;;;;;5082304;28;20044;-65
2024/03/28 02:47:43;;;;;;;21.33;10.95;;;7.60;99.90;;;;;;5076544;28;20075;-65
2024/03/28 02:50:09;;;;;;;18.58;10.80;;;7.70;99.90;;;;;;5075497;28;20028;-65
2024/03/28 02:52:36;;;;;;;15.68;10.50;;;7.60;99.90;;;;;;5075615;28;20453;-65
2024/03/28 02:55:02;;;;;;;16.85;10.45;;;7.60;99.90;;;;;;5074759;28;20104;-64
2024/03/28 02:57:28;;;;;;;18.67;11.25;;;7.70;99.90;;;;;;5071952;28;20048;-65
2024/03/28 02:59:54;;;;;;;19.05;10.70;;;7.60;99.90;;;;;;5078261;28;20430;-65
2024/03/28 03:02:20;;;;;;;15.13;10.60;;;7.60;99.90;;;;;;5068944;28;20036;-65
2024/03/28 03:04:45;;;;;;;18.63;10.85;;;7.60;99.90;;;;;;5066001;28;20044;-65
2024/03/28 03:07:11;;;;;;;18.27;10.25;;;7.60;99.90;;;;;;5064006;28;20040;-65
2024/03/28 03:09:37;;;;;;;17.67;11.20;;;7.70;99.90;;;;;;5067472;28;20097;-65
2024/03/28 03:12:03;;;;;;;14.55;10.27;;;7.60;99.90;;;;;;5077531;28;20086;-65
2024/03/28 03:14:29;;;;;;;19.63;10.68;;;7.70;99.90;;;;;;5077743;28;20060;-65
2024/03/28 03:16:55;;;;;;;18.73;10.57;;;7.60;99.90;;;;;;5064253;28;20055;-65
2024/03/28 03:19:22;;;;;;;22.67;10.35;;;7.60;99.90;;;;;;5076494;28;20250;-65
2024/03/28 03:21:50;;;;;;;18.38;11.32;;;7.60;99.90;;;;;;5072635;28;20217;-65
2024/03/28 03:24:16;;;;;;;20.23;11.20;;;7.60;99.90;;;;;;5080042;28;20090;-65
2024/03/28 03:26:49;;;;;;;20.17;11.90;;;7.60;99.90;;;;;;5074208;28;20127;-65
2024/03/28 03:34:52;;;;;;;17.63;11.50;;;7.60;99.90;;;;;;5079470;28;20078;-65
2024/03/28 03:37:18;;;;;;;16.30;10.52;;;7.60;99.90;;;;;;5081666;28;20139;-65
2024/03/28 03:39:43;;;;;;;19.85;11.10;;;7.70;99.90;;;;;;5075481;28;20036;-65
2024/03/28 03:42:10;;;;;;;19.70;11.10;;;7.70;99.90;;;;;;5062401;28;20059;-65
2024/03/28 03:44:37;;;;;;;18.45;10.50;;;7.70;99.90;;;;;;5069555;28;20055;-65
2024/03/28 03:47:04;;;;;;;19.88;11.20;;;7.60;99.90;;;;;;5080459;28;20043;-65
2024/03/28 03:49:29;;;;;;;16.90;10.73;;;7.70;99.90;;;;;;5076996;28;20036;-65
2024/03/28 03:51:55;;;;;;;16.73;10.63;;;7.60;99.90;;;;;;5077669;28;20177;-65
2024/03/28 03:54:21;;;;;;;21.73;11.45;;;7.60;99.90;;;;;;5081618;28;20123;-65
2024/03/28 03:56:46;;;;;;;20.67;11.70;;;7.60;99.90;;;;;;5078521;28;20547;-65
2024/03/28 03:59:12;;;;;;;25.55;12.32;;;7.60;99.90;;;;;;5080018;28;20568;-65
2024/03/28 04:01:38;;;;;;;18.52;10.70;;;7.50;99.90;;;;;;5079695;28;20073;-65
2024/03/28 04:04:04;;;;;;;21.95;12.00;;;7.50;99.90;;;;;;5092268;28;20104;-65
2024/03/28 04:06:30;;;;;;;19.38;10.65;;;7.50;99.90;;;;;;5078606;28;20090;-65
2024/03/28 04:08:55;;;;;;;21.40;11.60;;;7.50;99.90;;;;;;5079395;28;20087;-65
2024/03/28 04:11:21;;;;;;;21.50;10.95;;;7.50;99.90;;;;;;5080376;28;20036;-65
2024/03/28 04:13:53;;;;;;;20.90;11.10;;;7.40;99.90;;;;;;5075143;28;20059;-65
2024/03/28 04:16:18;;;;;;;22.48;12.48;;;7.50;99.90;;;;;;5072235;28;20048;-65
2024/03/28 04:18:44;;;;;;;21.05;11.73;;;7.50;99.90;;;;;;5070804;28;20123;-65
2024/03/28 04:21:10;;;;;;;21.20;12.75;;;7.40;99.90;;;;;;5076421;28;20048;-65
2024/03/28 04:23:35;;;;;;;21.92;13.20;;;7.40;99.90;;;;;;5077693;28;20058;-66
2024/03/28 04:26:01;;;;;;;21.85;13.27;;;7.50;99.90;;;;;;5068409;28;20134;-65
2024/03/28 04:28:27;;;;;;;25.83;14.45;;;7.40;99.90;;;;;;5081060;28;20085;-65
2024/03/28 04:30:52;;;;;;;24.98;14.55;;;7.40;99.90;;;;;;5079166;28;20048;-65
2024/03/28 04:33:19;;;;;;;26.25;13.90;;;7.40;99.90;;;;;;5066443;28;20042;-65
2024/03/28 04:35:48;;;;;;;28.15;15.35;;;7.40;99.90;;;;;;5069015;28;20056;-64
2024/03/28 04:38:15;;;;;;;26.90;14.68;;;7.30;99.90;;;;;;5077965;28;20720;-65
2024/03/28 04:40:41;;;;;;;24.92;13.65;;;7.40;99.90;;;;;;5070910;28;20482;-65
2024/03/28 04:43:09;;;;;;;30.20;14.80;;;7.30;99.90;;;;;;5071351;28;20110;-65
2024/03/28 04:45:35;;;;;;;27.50;14.55;;;7.30;99.90;;;;;;5061679;28;20510;-65
2024/03/28 04:48:00;;;;;;;30.20;15.32;;;7.40;99.90;;;;;;5077487;28;20052;-65
2024/03/28 04:50:26;;;;;;;22.55;13.85;;;7.30;99.90;;;;;;5067445;28;20046;-65
2024/03/28 04:52:52;;;;;;;29.85;14.02;;;7.50;99.90;;;;;;5080098;28;20055;-65
2024/03/28 04:55:20;;;;;;;24.60;13.13;;;7.50;99.90;;;;;;5078089;28;20067;-65
2024/03/28 04:57:46;;;;;;;26.55;13.40;;;7.40;99.90;;;;;;5079767;28;20518;-65
2024/03/28 05:00:12;;;;;;;23.45;13.43;;;7.50;99.90;;;;;;5080015;28;20055;-65
2024/03/28 05:02:38;;;;;;;24.88;12.82;;;7.50;99.90;;;;;;5080818;28;20048;-65
2024/03/28 05:05:05;;;;;;;24.55;12.40;;;7.40;99.90;;;;;;5065911;28;20052;-64
2024/03/28 05:07:31;;;;;;;22.13;12.48;;;7.40;99.90;;;;;;5070627;28;20044;-65
2024/03/28 05:09:57;;;;;;;19.77;12.45;;;7.50;99.90;;;;;;5071027;28;20059;-65
2024/03/28 05:12:24;;;;;;;25.08;12.13;;;7.50;99.90;;;;;;5073320;28;20048;-65
2024/03/28 05:14:50;;;;;;;23.50;12.85;;;7.40;99.90;;;;;;5079932;28;20416;-65
2024/03/28 05:17:16;;;;;;;24.42;13.68;;;7.40;99.90;;;;;;5078762;28;20119;-65
2024/03/28 05:19:41;;;;;;;22.52;13.32;;;7.30;99.90;;;;;;5078695;28;20122;-64
2024/03/28 05:22:08;;;;;;;25.25;13.88;;;7.40;99.90;;;;;;5068010;28;20056;-65
2024/03/28 05:24:34;;;;;;;21.13;13.13;;;7.30;99.90;;;;;;5069875;28;20089;-65
2024/03/28 05:27:00;;;;;;;27.15;12.85;;;7.40;99.90;;;;;;5073405;28;20060;-65
2024/03/28 05:29:26;;;;;;;27.60;13.00;;;7.30;99.90;;;;;;5080326;28;20098;-65
2024/03/28 05:31:51;;;;;;;28.67;13.73;;;7.30;99.90;;;;;;5070916;28;20134;-65
2024/03/28 05:34:18;;;;;;;20.67;12.35;;;7.30;99.90;;;;;;5069328;28;20044;-65
2024/03/28 05:36:44;;;;;;;26.50;13.43;;;7.30;99.90;;;;;;5081287;28;20044;-65
2024/03/28 05:39:10;;;;;;;26.60;13.82;;;7.20;99.90;;;;;;5076825;28;20453;-65
2024/03/28 05:41:36;;;;;;;22.55;12.80;;;7.30;99.90;;;;;;5080439;28;20052;-65
2024/03/28 05:44:02;;;;;;;22.63;12.88;;;7.30;99.90;;;;;;5073460;28;20115;-66
2024/03/28 05:46:31;;;;;;;29.42;14.57;;;7.30;99.90;;;;;;5064052;28;20207;-65
2024/03/28 05:48:57;;;;;;;23.40;14.05;;;7.20;99.90;;;;;;5083249;28;20123;-65
2024/03/28 05:51:23;;;;;;;24.15;12.35;;;7.20;99.90;;;;;;5083891;28;20051;-65
2024/03/28 05:53:48;;;;;;;26.50;14.05;;;7.20;99.90;;;;;;5081965;28;20162;-65
2024/03/28 05:56:15;;;;;;;21.73;13.40;;;7.20;99.90;;;;;;5070933;28;20056;-65
2024/03/28 05:58:41;;;;;;;24.83;13.05;;;7.30;99.90;;;;;;5072976;28;20045;-65
2024/03/28 06:01:07;;;;;;;24.38;13.73;;;7.20;99.90;;;;;;5076909;28;20492;-65
2024/03/28 06:03:32;;;;;;;24.13;12.73;;;7.30;99.90;;;;;;5079802;28;20044;-65
2024/03/28 06:05:58;;;;;;;22.15;12.05;;;7.20;99.90;;;;;;5078242;28;20045;-65
2024/03/28 06:08:24;;;;;;;19.63;11.95;;;7.20;99.90;;;;;;5067737;28;20044;-65
2024/03/28 06:10:50;;;;;;;22.02;13.95;;;7.30;99.90;;;;;;5076489;28;20040;-65
2024/03/28 06:13:16;;;;;;;23.42;13.98;;;7.30;99.90;;;;;;5081591;28;20678;-65
2024/03/28 06:15:51;;;;;;;28.45;14.32;;;7.20;99.90;;;;;;5079779;28;20086;-65
2024/03/28 06:18:16;;;;;;;29.17;15.27;;;7.20;99.90;;;;;;5080112;28;20131;-65
2024/03/28 06:20:42;;;;;;;29.30;15.40;;;7.30;99.90;;;;;;5082459;28;20198;-65
2024/03/28 06:23:13;;;;;;;29.63;14.63;;;7.20;99.90;;;;;;5073353;28;20090;-65
2024/03/28 06:25:39;;;;;;;22.08;13.82;;;7.30;99.90;;;;;;5079977;28;20090;-65
2024/03/28 06:28:08;;;;;;;28.65;15.20;;;7.30;99.90;;;;;;5077824;28;20098;-65
2024/03/28 06:30:35;;;;;;;28.48;14.95;;;7.30;99.90;;;;;;5082900;28;20055;-65
2024/03/28 06:33:02;;;;;;;26.08;15.75;;;7.30;99.90;;;;;;5081362;28;20056;-65
2024/03/28 06:35:28;;;;;;;28.73;15.50;;;7.30;99.90;;;;;;5075089;28;20055;-65
2024/03/28 06:37:53;;;;;;;25.77;14.95;;;7.30;99.90;;;;;;5079040;28;20040;-65
2024/03/28 06:40:24;;;;;;;26.02;14.45;;;7.30;99.90;;;;;;5081179;28;20071;-65
2024/03/28 06:42:50;;;;;;;22.33;13.18;;;7.30;99.90;;;;;;5081873;28;20051;-65
2024/03/28 06:45:18;;;;;;;19.95;12.88;;;7.20;99.90;;;;;;5077683;28;20043;-65
2024/03/28 06:47:44;;;;;;;20.15;12.27;;;7.30;99.90;;;;;;5082982;28;20048;-65
2024/03/28 06:50:10;;;;;;;20.95;13.48;;;7.20;99.90;;;;;;5073859;28;20048;-65
2024/03/28 06:52:35;;;;;;;20.67;12.60;;;7.30;99.90;;;;;;5072163;28;20123;-65
2024/03/28 06:55:01;;;;;;;24.77;11.98;;;7.30;99.90;;;;;;5054930;28;20048;-65
2024/03/28 06:57:27;;;;;;;19.70;12.48;;;7.30;99.90;;;;;;5073771;28;20575;-65
2024/03/28 06:59:52;;;;;;;26.70;12.90;;;7.20;99.90;;;;;;5078019;28;20079;-65
2024/03/28 07:02:18;;;;;;;18.10;11.57;;;7.30;99.90;;;;;;5084105;28;20482;-65
2024/03/28 07:04:44;;;;;;;15.57;10.80;;;7.30;99.90;;;;;;5083322;28;20513;-65
2024/03/28 07:07:10;;;;;;;15.68;10.05;;;7.40;99.90;;;;;;5071417;28;20052;-65
2024/03/28 07:09:37;;;;;;;16.58;8.70;;;7.30;99.90;;;;;;5068910;28;20517;-65
2024/03/28 07:12:02;;;;;;;13.98;8.93;;;7.40;99.90;;;;;;5076300;28;20048;-65
2024/03/28 07:14:28;;;;;;;15.10;7.97;;;7.40;99.90;;;;;;5054349;28;20040;-65
2024/03/28 07:17:00;;;;;;;10.80;7.60;;;7.30;99.90;;;;;;5061541;28;20459;-65
2024/03/28 07:19:25;;;;;;;11.18;7.20;;;7.50;99.90;;;;;;5080514;28;20691;-65
2024/03/28 07:21:51;;;;;;;11.70;6.78;;;7.40;99.90;;;;;;5054291;28;20178;-65
2024/03/28 07:24:17;;;;;;;11.40;7.85;;;7.50;99.90;;;;;;5076444;28;20497;-65
2024/03/28 07:26:43;;;;;;;12.45;8.48;;;7.40;99.90;;;;;;5071266;28;20048;-65
2024/03/28 07:29:08;;;;;;;13.07;7.22;;;7.40;99.90;;;;;;5071085;28;20053;-65
2024/03/28 07:31:34;;;;;;;13.35;8.15;;;7.50;99.90;;;;;;5080076;28;20043;-65
2024/03/28 07:34:00;;;;;;;11.57;7.13;;;7.60;99.90;;;;;;5078799;28;20158;-65
2024/03/28 07:36:26;;;;;;;14.35;6.57;;;7.60;99.90;;;;;;5073856;28;20486;-65
2024/03/28 07:38:52;;;;;;;7.93;5.57;;;7.50;99.90;;;;;;5078349;28;20101;-65
2024/03/28 07:41:18;;;;;;;10.75;6.10;;;7.60;99.90;;;;;;5078561;28;20055;-65
2024/03/28 07:43:45;;;;;;;7.80;4.45;;;7.50;99.90;;;;;;5074217;28;20044;-65
2024/03/28 07:46:10;;;;;;;8.70;4.95;;;7.60;99.90;;;;;;5078609;28;20553;-65
2024/03/28 07:48:37;;;;;;;6.03;4.93;;;7.60;99.90;;;;;;5078691;28;20036;-65
2024/03/28 07:51:03;;;;;;;7.25;4.57;;;7.70;99.90;;;;;;5072147;28;20040;-65
2024/03/28 07:53:31;;;;;;;6.50;4.47;;;7.80;99.90;;;;;;5076673;28;20113;-65
2024/03/28 07:55:56;;;;;;;6.50;4.82;;;7.80;99.90;;;;;;5081145;28;20382;-65
2024/03/28 07:58:23;;;;;;;6.53;4.95;;;7.80;99.90;;;;;;5077054;28;20044;-65
2024/03/28 08:00:49;;;;;;;10.57;5.53;;;7.90;99.90;;;;;;5070357;28;20048;-65
2024/03/28 08:03:19;;;;;;;7.63;5.72;;;8.00;99.90;;;;;;5079008;28;20105;-65
2024/03/28 08:05:49;;;;;;;7.93;5.68;;;7.90;99.90;;;;;;5077716;28;20059;-65
2024/03/28 08:08:16;;;;;;;11.60;6.80;;;8.00;99.90;;;;;;5074892;28;20044;-65
2024/03/28 08:10:41;;;;;;;9.80;5.95;;;8.00;99.90;;;;;;5073055;28;20059;-65
2024/03/28 08:13:07;;;;;;;10.27;6.32;;;8.00;99.90;;;;;;5079650;28;20397;-65
2024/03/28 08:15:33;;;;;;;11.30;7.18;;;8.10;99.90;;;;;;5072675;28;20052;-65
2024/03/28 08:18:03;;;;;;;11.98;6.85;;;8.10;99.90;;;;;;5081276;28;20119;-65
2024/03/28 08:20:32;;;;;;;12.25;7.90;;;8.10;99.90;;;;;;5079411;28;20055;-65
2024/03/28 08:22:57;;;;;;;9.68;6.32;;;8.20;99.90;;;;;;5079444;28;20483;-65
2024/03/28 08:25:23;;;;;;;14.02;8.23;;;8.20;99.90;;;;;;5076846;28;20127;-65
2024/03/28 08:27:52;;;;;;;18.65;8.63;;;8.40;99.90;;;;;;5066569;28;20088;-65
2024/03/28 08:30:19;;;;;;;14.90;9.13;;;8.50;99.90;;;;;;5067354;28;20040;-65
2024/03/28 08:32:45;;;;;;;10.63;7.85;;;8.60;99.90;;;;;;5069994;28;20048;-65
2024/03/28 08:35:11;;;;;;;16.33;8.43;;;8.60;99.90;;;;;;5069053;28;20126;-65
2024/03/28 08:37:39;;;;;;;15.18;9.02;;;8.60;99.90;;;;;;5064734;28;20078;-65
2024/03/28 08:40:09;;;;;;;13.25;8.35;;;8.70;99.90;;;;;;5067492;28;20045;-65
2024/03/28 08:42:38;;;;;;;12.82;8.38;;;8.70;99.90;;;;;;5071854;28;20054;-65
2024/03/28 08:45:05;;;;;;;11.68;7.65;;;8.80;99.90;;;;;;5059804;28;20052;-65
2024/03/28 08:47:31;;;;;;;12.55;8.75;;;8.80;99.90;;;;;;5065266;28;20891;-65
2024/03/28 08:49:57;;;;;;;14.65;8.63;;;8.90;99.90;;;;;;5059742;28;20048;-65
2024/03/28 08:52:23;;;;;;;13.70;9.35;;;8.90;99.90;;;;;;5065006;28;20054;-64
2024/03/28 08:54:48;;;;;;;15.10;9.40;;;9.00;99.90;;;;;;5065326;28;20044;-65
2024/03/28 08:57:14;;;;;;;17.55;9.50;;;9.00;99.90;;;;;;5065642;28;20392;-66
2024/03/28 08:59:40;;;;;;;16.40;10.02;;;9.10;99.90;;;;;;5062682;28;20123;-65
2024/03/28 09:02:07;;;;;;;17.00;9.80;;;9.30;99.90;;;;;;5086251;28;20051;-65
2024/03/28 09:04:33;;;;;;;16.48;11.27;;;9.50;99.90;;;;;;5083556;28;20043;-65
2024/03/28 09:07:00;;;;;;;16.25;9.07;;;9.70;99.90;;;;;;5078688;28;20127;-65
2024/03/28 09:09:26;;;;;;;11.18;7.97;;;9.80;99.90;;;;;;5086451;28;20093;-65
2024/03/28 09:11:51;;;;;;;25.30;10.38;;;9.90;99.90;;;;;;5089328;27;20047;-65
2024/03/28 09:14:17;;;;;;;13.20;8.23;;;9.90;99.90;;;;;;5083778;28;20048;-65
2024/03/28 09:16:43;;;;;;;15.30;10.27;;;9.90;99.90;;;;;;5087987;28;20043;-65
2024/03/28 09:19:09;;;;;;;9.45;6.75;;;9.90;99.90;;;;;;5092366;28;20083;-65
2024/03/28 09:21:35;;;;;;;21.30;10.60;;;10.10;99.90;;;;;;5091505;28;20052;-65
2024/03/28 09:24:01;;;;;;;18.17;11.35;;;10.20;99.90;;;;;;5082929;28;20482;-65
2024/03/28 09:26:26;;;;;;;16.00;9.35;;;10.30;99.90;;;;;;5075387;28;20048;-65
2024/03/28 09:28:58;;;;;;;18.85;9.60;;;10.50;99.90;;;;;;5075230;28;20055;-65
2024/03/28 09:31:34;;;;;;;15.65;10.23;;;10.60;99.90;;;;;;5074032;28;20078;-64
2024/03/28 09:34:00;;;;;;;11.95;7.72;;;10.60;99.90;;;;;;5066243;28;20813;-65
2024/03/28 09:36:26;;;;;;;16.83;10.25;;;10.70;99.90;;;;;;5053356;28;20044;-65
2024/03/28 09:38:52;;;;;;;14.88;10.02;;;10.70;99.90;;;;;;5073173;28;20359;-64
2024/03/28 09:41:17;;;;;;;13.90;9.32;;;10.80;99.90;;;;;;5071486;28;20122;-64
2024/03/28 09:43:43;;;;;;;14.68;10.20;;;10.80;99.90;;;;;;5077072;28;20447;-64
2024/03/28 09:46:13;;;;;;;16.02;10.10;;;11.00;99.90;;;;;;5067953;28;20055;-65
2024/03/28 09:48:41;;;;;;;15.20;10.23;;;11.20;99.90;;;;;;5077705;28;20095;-65
2024/03/28 09:51:08;;;;;;;12.65;9.55;;;11.40;99.90;;;;;;5076052;28;20056;-65
2024/03/28 09:53:36;;;;;;;11.95;7.63;;;11.60;99.90;;;;;;5078978;28;20123;-65
2024/03/28 09:56:03;;;;;;;18.35;10.43;;;11.70;99.90;;;;;;5081207;28;20745;-64
2024/03/28 09:58:29;;;;;;;14.38;9.80;;;11.90;99.90;;;;;;5068420;28;20078;-65
2024/03/28 10:00:56;;;;;;;21.77;10.70;;;11.80;99.90;;;;;;5077572;28;20068;-64
2024/03/28 10:03:33;;;;;;;15.57;10.43;;;11.90;99.90;;;;;;5078420;28;20575;-64
2024/03/28 10:05:59;;;;;;;18.83;9.63;;;12.10;99.90;;;;;;5085337;28;20052;-64
2024/03/28 10:08:28;;;;;;;13.15;9.27;;;12.10;99.90;;;;;;5088032;28;20043;-64
2024/03/28 10:10:54;;;;;;;16.20;9.70;;;12.30;99.90;;;;;;5087617;28;20051;-65
2024/03/28 10:13:33;;;;;;;11.75;7.95;;;12.40;28.20;;;;;;5078225;28;20097;-65
2024/03/28 10:16:01;;;;;;;15.38;8.82;;;12.60;99.90;;;;;;5070100;28;20050;-64
2024/03/28 10:18:27;;;;;;;13.32;8.30;;;12.60;99.90;;;;;;5078093;28;20086;-65
2024/03/28 10:20:57;;;;;;;12.40;8.55;;;12.50;99.90;;;;;;5079402;28;20055;-64
2024/03/28 10:23:24;;;;;;;15.65;6.30;;;12.50;99.90;;;;;;5070616;28;20045;-65
2024/03/28 10:25:54;;;;;;;12.23;8.02;;;12.50;99.90;;;;;;5061518;28;20044;-65
2024/03/28 10:28:21;;;;;;;13.63;8.50;;;12.60;53.30;;;;;;5072334;28;20048;-65
2024/03/28 10:30:51;;;;;;;12.52;8.15;;;12.50;27.60;;;;;;5073605;28;20346;-65
2024/03/28 10:33:17;;;;;;;13.90;8.52;;;12.60;99.90;;;;;;5069035;28;20072;-65
2024/03/28 10:36:06;;;;;;;14.43;7.78;;;12.70;77.50;;;;;;5063911;28;20040;-65
2024/03/28 10:38:32;;;;;;;12.70;7.45;;;12.70;52.50;;;;;;5066292;28;20049;-65
2024/03/28 10:40:59;;;;;;;9.50;5.95;;;12.80;99.50;;;;;;5065380;28;20049;-65
2024/03/28 10:43:27;;;;;;;11.13;6.47;;;12.80;1.00;;;;;;5072968;28;20051;-64
2024/03/28 10:46:02;;;;;;;7.65;5.75;;;12.70;99.90;;;;;;5071567;28;20402;-65
2024/03/28 11:04:50;;;;;;;4.13;3.67;;;12.70;99.90;;;;;;5014131;27;2451750;-59
2024/03/28 11:07:16;;;;;;;4.25;3.95;;;12.90;99.90;;;;;;5099173;28;20408;-51
2024/03/28 11:09:42;;;;;;;5.50;3.47;;;12.80;99.90;;;;;;5096836;28;20040;-59
2024/03/28 11:12:09;;;;;;;3.17;2.88;;;12.90;99.90;;;;;;5078698;28;20054;-48
2024/03/28 11:14:36;;;;;;;3.50;3.20;;;12.90;99.90;;;;;;5098373;28;20425;-59
2024/03/28 11:17:05;;;;;;;4.72;3.17;;;13.00;99.90;;;;;;5093411;28;20044;-58
2024/03/28 11:19:31;;;;;;;5.17;3.77;;;13.00;99.90;;;;;;5102809;28;20043;-52
2024/03/28 11:21:57;;;;;;;2.90;2.70;;;12.80;99.90;;;;;;5099350;28;20654;-54
2024/03/28 11:24:29;;;;;;;2.70;2.50;;;12.70;84.00;;;;;;5078700;28;20054;-55
2024/03/28 11:27:02;;;;;;;3.38;3.00;;;12.60;48.40;;;;;;5093084;28;20051;-58
2024/03/28 11:29:27;;;;;;;2.85;2.33;;;12.70;99.90;;;;;;5074827;28;20062;-54
2024/03/28 11:32:00;;;;;;;4.43;3.08;;;12.70;19.00;;;;;;5097416;28;20048;-60
2024/03/28 11:34:29;;;;;;;3.10;2.90;;;12.70;78.50;;;;;;5094433;28;20334;-59
2024/03/28 11:37:00;;;;;;;4.87;3.03;;;12.60;94.10;;;;;;5094274;28;20490;-48
2024/03/28 11:39:31;;;;;;;5.75;3.10;;;12.50;30.00;;;;;;5076386;28;20569;-56
2024/03/28 11:41:57;;;;;;;3.38;2.92;;;12.40;99.90;;;;;;5098576;28;20047;-63
2024/03/28 11:44:26;;;;;;;3.40;2.60;;;12.10;95.00;;;;;;5091107;28;20517;-61
2024/03/28 11:47:04;;;;;;;4.70;2.23;;;12.00;99.90;;;;;;5095673;28;20101;-59
2024/03/28 11:49:31;;;;;;;3.85;2.05;;;11.80;99.90;;;;;;5053091;28;20323;-50
2024/03/28 11:51:58;;;;;;;4.15;2.70;;;11.60;99.90;;;;;;5094276;28;20078;-57
2024/03/28 11:54:24;;;;;;;3.95;2.90;;;11.40;99.90;;;;;;5097555;28;20040;-50
2024/03/28 11:56:50;;;;;;;1.95;1.55;;;11.30;99.90;;;;;;5078181;28;20050;-60
2024/03/28 11:59:22;;;;;;;2.28;2.05;;;11.10;99.90;;;;;;5099647;28;20126;-60
2024/03/28 12:01:48;;;;;;;0.93;0.93;;;11.00;99.90;;;;;;5092636;28;20470;-64
2024/03/28 12:04:28;;;;;;;1.00;1.00;;;10.80;1.00;;;;;;5094141;28;20070;-63
2024/03/28 12:06:54;;;;;;;0.90;0.90;;;10.60;1.00;;;;;;5065364;28;20095;-51
2024/03/28 12:09:21;;;;;;;0.57;0.57;;;10.40;31.50;;;;;;5076628;28;20105;-55
2024/03/28 12:11:47;;;;;;;0.80;0.80;;;10.10;99.90;;;;;;5083558;28;20677;-47
2024/03/28 12:14:20;;;;;;;0.85;0.70;;;9.90;99.90;;;;;;5065103;28;20044;-63
2024/03/28 12:16:46;;;;;;;1.10;0.60;;;9.60;99.90;;;;;;5085271;28;20050;-57
2024/03/28 12:19:23;;;;;;;0.75;0.75;;;9.30;1.00;;;;;;5062329;28;20678;-57
2024/03/28 12:21:50;;;;;;;1.58;0.65;;;9.10;1.00;;;;;;5062365;28;20484;-58
2024/03/28 12:24:18;;;;;;;5.65;0.85;;;8.90;99.90;;;;;;5076237;28;20496;-55
2024/03/28 12:26:44;;;;;;;0.40;0.40;;;8.60;1.00;;;;;;5064591;28;20052;-63
2024/03/28 12:29:10;;;;;;;0.50;0.38;;;8.30;1.00;;;;;;5062242;28;20047;-55
2024/03/28 12:31:36;;;;;;;0.35;0.30;;;8.20;31.40;;;;;;5079661;28;20494;-51
2024/03/28 12:34:12;;;;;;;0.80;0.20;;;8.10;99.90;;;;;;5045308;28;20102;-60
2024/03/28 12:36:45;;;;;;;0.40;0.40;;;8.00;99.90;;;;;;5062495;28;20131;-63
2024/03/28 12:39:11;;;;;;;0.25;0.25;;;7.90;99.90;;;;;;5066232;28;20060;-57
2024/03/28 12:41:39;;;;;;;0.60;0.50;;;7.80;99.90;;;;;;5047488;28;20082;-64
2024/03/28 12:44:06;;;;;;;0.43;0.30;;;7.80;99.90;;;;;;5081794;28;20101;-63
2024/03/28 12:46:40;;;;;;;2.60;0.40;;;7.70;99.90;;;;;;5047318;28;20040;-66
2024/03/28 12:49:06;;;;;;;0.20;0.20;;;7.70;1.00;;;;;;5063891;28;20048;-58
2024/03/28 12:51:32;;;;;;;0.65;0.50;;;7.70;1.00;;;;;;5045320;28;20109;-59
2024/03/28 12:53:58;;;;;;;0.43;0.43;;;7.60;1.00;;;;;;5074470;28;20067;-63
2024/03/28 12:56:24;;;;;;;1.25;0.50;;;7.60;62.30;;;;;;5048670;28;20163;-62
2024/03/28 12:58:50;;;;;;;1.05;0.50;;;7.60;99.90;;;;;;5065396;28;20044;-55
2024/03/28 13:01:16;;;;;;;0.40;0.40;;;7.60;99.90;;;;;;5065410;28;20063;-52
2024/03/28 13:03:41;;;;;;;1.45;0.55;;;7.50;99.90;;;;;;5047766;28;20112;-57